createdAt,value
2019-03-29T00:00:34.736Z,19.20
2019-03-29T00:03:02.200Z,21.13
2019-03-29T00:05:29.731Z,16.43
2019-03-29T00:07:57.272Z,19.70
2019-03-29T00:10:24.741Z,22.97
2019-03-29T00:12:52.440Z,19.93
2019-03-29T00:15:19.907Z,21.47
2019-03-29T00:17:47.465Z,20.43
2019-03-29T00:20:14.953Z,19.30
2019-03-29T00:22:42.478Z,25.27
2019-03-29T00:25:09.940Z,18.47
2019-03-29T00:27:37.427Z,21.93
2019-03-29T00:30:05.331Z,19.93
2019-03-29T00:32:32.815Z,19.00
2019-03-29T00:35:00.361Z,18.90
2019-03-29T00:37:27.868Z,22.50
2019-03-29T00:39:55.319Z,23.40
2019-03-29T00:42:22.803Z,16.33
2019-03-29T00:44:50.272Z,18.70
2019-03-29T00:47:17.749Z,20.07
2019-03-29T00:49:45.228Z,17.43
2019-03-29T00:52:12.817Z,17.83
2019-03-29T00:54:40.262Z,19.47
2019-03-29T00:57:07.792Z,24.57
2019-03-29T00:59:35.251Z,19.17
2019-03-29T01:02:02.739Z,17.40
2019-03-29T01:04:30.199Z,20.50
2019-03-29T01:06:57.772Z,20.90
2019-03-29T01:09:25.262Z,17.33
2019-03-29T01:11:52.745Z,20.23
2019-03-29T01:14:20.213Z,21.10
2019-03-29T01:16:47.739Z,17.63
2019-03-29T01:19:15.215Z,20.20
2019-03-29T01:21:42.710Z,19.33
2019-03-29T01:24:10.171Z,18.40
2019-03-29T01:26:37.735Z,19.10
2019-03-29T01:29:05.197Z,20.73
2019-03-29T01:31:32.683Z,20.17
2019-03-29T01:34:00.139Z,19.77
2019-03-29T01:36:28.076Z,20.07
2019-03-29T01:38:55.717Z,20.80
2019-03-29T01:41:23.213Z,25.10
2019-03-29T01:43:50.711Z,20.63
2019-03-29T01:46:18.177Z,20.00
2019-03-29T01:48:45.656Z,18.87
2019-03-29T01:51:13.136Z,19.00
2019-03-29T01:53:40.612Z,20.57
2019-03-29T01:56:08.119Z,18.67
2019-03-29T01:58:35.725Z,22.17
2019-03-29T02:01:03.304Z,20.57
2019-03-29T02:03:30.784Z,23.90
2019-03-29T02:05:58.238Z,24.03
2019-03-29T02:08:35.531Z,20.53
2019-03-29T02:10:55.103Z,20.83
2019-03-29T02:13:22.610Z,18.33
2019-03-29T02:15:50.081Z,24.77
2019-03-29T02:18:17.596Z,21.10
2019-03-29T02:20:45.085Z,21.13
2019-03-29T02:23:12.617Z,22.30
2019-03-29T02:25:40.079Z,22.47
2019-03-29T02:28:07.571Z,19.53
2019-03-29T02:30:35.051Z,20.23
2019-03-29T02:33:02.552Z,24.23
2019-03-29T02:35:30.020Z,22.87
2019-03-29T02:37:57.526Z,25.60
2019-03-29T02:40:24.999Z,22.70
2019-03-29T02:42:52.506Z,25.30
2019-03-29T02:45:19.959Z,24.90
2019-03-29T02:47:48.743Z,25.43
2019-03-29T02:50:16.320Z,20.10
2019-03-29T02:52:43.814Z,22.97
2019-03-29T02:55:11.646Z,30.83
2019-03-29T02:57:39.115Z,35.80
2019-03-29T03:00:08.510Z,26.93
2019-03-29T03:02:35.955Z,25.50
2019-03-29T03:05:04.007Z,26.60
2019-03-29T03:07:31.499Z,26.70
2019-03-29T03:09:59.020Z,26.60
2019-03-29T03:12:26.753Z,28.43
2019-03-29T03:14:54.301Z,33.70
2019-03-29T03:17:21.899Z,28.70
2019-03-29T03:19:49.399Z,30.13
2019-03-29T03:22:16.905Z,29.83
2019-03-29T03:24:44.593Z,29.60
2019-03-29T03:27:12.069Z,26.73
2019-03-29T03:29:39.575Z,27.63
2019-03-29T03:32:07.063Z,25.27
2019-03-29T03:34:34.581Z,24.60
2019-03-29T03:37:02.080Z,25.70
2019-03-29T03:39:31.968Z,28.23
2019-03-29T03:41:59.041Z,27.07
2019-03-29T03:44:26.554Z,31.30
2019-03-29T03:46:54.040Z,28.73
2019-03-29T03:49:21.687Z,26.23
2019-03-29T03:51:49.165Z,27.20
2019-03-29T03:54:17.315Z,30.97
2019-03-29T03:56:47.381Z,47.63
2019-03-29T03:59:15.299Z,42.83
2019-03-29T04:01:43.033Z,41.43
2019-03-29T04:04:10.565Z,41.33
2019-03-29T04:06:38.068Z,36.90
2019-03-29T04:09:06.269Z,31.77
2019-03-29T04:11:33.753Z,29.60
2019-03-29T04:14:01.294Z,32.03
2019-03-29T04:16:28.750Z,31.10
2019-03-29T04:18:56.260Z,31.53
2019-03-29T04:21:23.763Z,31.13
2019-03-29T04:23:51.285Z,25.07
2019-03-29T04:26:18.798Z,28.00
2019-03-29T04:28:56.959Z,24.30
2019-03-29T04:31:15.766Z,24.67
2019-03-29T04:33:43.261Z,26.20
2019-03-29T04:36:10.785Z,24.37
2019-03-29T04:38:38.301Z,24.73
2019-03-29T04:41:05.824Z,25.93
2019-03-29T04:43:33.400Z,19.67
2019-03-29T04:46:02.881Z,27.90
2019-03-29T04:48:30.345Z,20.67
2019-03-29T04:50:57.893Z,24.83
2019-03-29T04:53:25.362Z,25.97
2019-03-29T04:55:52.919Z,23.27
2019-03-29T04:58:20.404Z,20.63
2019-03-29T05:00:47.940Z,24.60
2019-03-29T05:03:15.417Z,22.43
2019-03-29T05:05:43.028Z,24.20
2019-03-29T05:08:10.540Z,25.40
2019-03-29T05:10:38.041Z,19.67
2019-03-29T05:13:05.579Z,20.70
2019-03-29T05:15:33.118Z,22.60
2019-03-29T05:18:00.606Z,19.20
2019-03-29T05:20:28.126Z,23.60
2019-03-29T05:22:55.677Z,20.13
2019-03-29T05:25:23.233Z,20.80
2019-03-29T05:27:50.851Z,22.50
2019-03-29T05:30:18.371Z,18.17
2019-03-29T05:32:45.897Z,27.13
2019-03-29T05:35:13.420Z,27.60
2019-03-29T05:37:40.922Z,26.93
2019-03-29T05:40:08.440Z,24.07
2019-03-29T05:42:35.944Z,25.83
2019-03-29T05:45:04.009Z,28.27
2019-03-29T05:47:31.478Z,24.00
2019-03-29T05:49:59.022Z,27.20
2019-03-29T05:52:26.521Z,23.83
2019-03-29T05:54:54.076Z,23.27
2019-03-29T05:57:21.622Z,23.47
2019-03-29T05:59:49.100Z,21.53
2019-03-29T06:02:16.624Z,19.97
2019-03-29T06:04:44.119Z,20.10
2019-03-29T06:07:11.669Z,21.87
2019-03-29T06:09:39.199Z,22.60
2019-03-29T06:12:06.728Z,26.00
2019-03-29T06:14:34.218Z,20.60
2019-03-29T06:17:01.742Z,23.40
2019-03-29T06:19:29.304Z,20.13
2019-03-29T06:21:56.848Z,19.93
2019-03-29T06:24:24.355Z,20.23
2019-03-29T06:26:52.000Z,21.77
2019-03-29T06:29:19.504Z,19.13
2019-03-29T06:31:47.028Z,19.80
2019-03-29T06:34:14.548Z,23.60
2019-03-29T06:36:42.790Z,20.17
2019-03-29T06:39:10.344Z,19.60
2019-03-29T06:41:37.862Z,20.40
2019-03-29T06:44:05.465Z,21.40
2019-03-29T06:46:32.984Z,22.93
2019-03-29T06:49:00.467Z,20.83
2019-03-29T06:51:27.999Z,19.10
2019-03-29T06:53:55.487Z,21.33
2019-03-29T06:56:23.438Z,19.47
2019-03-29T06:58:51.036Z,21.70
2019-03-29T07:01:18.618Z,21.37
2019-03-29T07:03:46.185Z,18.47
2019-03-29T07:06:13.743Z,19.23
2019-03-29T07:08:41.220Z,22.23
2019-03-29T07:11:17.421Z,19.43
2019-03-29T07:13:38.248Z,20.07
2019-03-29T07:16:05.779Z,19.07
2019-03-29T07:18:33.268Z,17.80
2019-03-29T07:21:01.223Z,23.17
2019-03-29T07:23:28.707Z,26.13
2019-03-29T07:25:56.672Z,16.50
2019-03-29T07:28:24.213Z,20.90
2019-03-29T07:30:51.734Z,19.10
2019-03-29T07:33:19.283Z,16.37
2019-03-29T07:35:46.778Z,21.43
2019-03-29T07:38:14.287Z,18.33
2019-03-29T07:40:41.780Z,17.93
2019-03-29T07:43:09.317Z,19.63
2019-03-29T07:45:36.799Z,16.20
2019-03-29T07:48:04.311Z,27.43
2019-03-29T07:50:31.816Z,19.07
2019-03-29T07:52:59.351Z,22.17
2019-03-29T07:55:26.900Z,20.23
2019-03-29T07:57:54.404Z,21.50
2019-03-29T08:00:21.889Z,18.63
2019-03-29T08:02:49.484Z,19.67
2019-03-29T08:05:17.948Z,17.80
2019-03-29T08:07:45.749Z,25.20
2019-03-29T08:10:24.165Z,19.00
2019-03-29T08:12:42.702Z,17.40
2019-03-29T08:15:10.387Z,18.90
2019-03-29T08:17:37.900Z,20.23
2019-03-29T08:20:36.715Z,21.50
2019-03-29T08:22:34.980Z,14.50
2019-03-29T08:25:02.588Z,15.33
2019-03-29T08:27:30.117Z,14.80
2019-03-29T08:29:57.636Z,17.57
2019-03-29T08:32:25.150Z,14.53
2019-03-29T08:34:52.649Z,14.77
2019-03-29T08:37:20.315Z,14.63
2019-03-29T08:39:47.850Z,17.00
2019-03-29T08:42:18.374Z,14.60
2019-03-29T08:44:44.981Z,17.80
2019-03-29T08:47:12.569Z,15.53
2019-03-29T08:49:40.123Z,17.23
2019-03-29T08:52:07.769Z,16.90
2019-03-29T08:54:35.342Z,14.90
2019-03-29T08:57:02.920Z,17.33
2019-03-29T08:59:30.505Z,16.13
2019-03-29T09:01:58.121Z,26.97
2019-03-29T09:04:25.954Z,29.27
2019-03-29T09:06:54.266Z,32.73
2019-03-29T09:09:22.084Z,26.70
2019-03-29T09:11:49.665Z,26.33
2019-03-29T09:14:17.293Z,22.50
2019-03-29T09:16:44.884Z,24.00
2019-03-29T09:19:12.559Z,19.27
2019-03-29T09:21:40.233Z,24.13
2019-03-29T09:24:21.210Z,20.57
2019-03-29T09:26:37.360Z,18.67
2019-03-29T09:29:04.909Z,19.70
2019-03-29T09:31:32.505Z,23.53
2019-03-29T09:34:00.232Z,18.60
2019-03-29T09:36:27.810Z,26.93
2019-03-29T09:38:55.506Z,21.90
2019-03-29T09:41:23.122Z,19.93
2019-03-29T09:43:54.083Z,20.03
2019-03-29T09:46:20.301Z,18.83
2019-03-29T09:48:47.924Z,19.30
2019-03-29T09:51:15.494Z,19.17
2019-03-29T09:53:43.176Z,19.10
2019-03-29T09:56:10.776Z,17.17
2019-03-29T09:58:38.603Z,18.30
2019-03-29T10:01:06.849Z,17.50
2019-03-29T10:03:34.376Z,16.53
2019-03-29T10:06:01.869Z,15.73
2019-03-29T10:08:29.395Z,14.40
2019-03-29T10:10:56.890Z,15.30
2019-03-29T10:13:24.469Z,12.90
2019-03-29T10:15:51.972Z,14.40
2019-03-29T10:18:19.511Z,21.37
2019-03-29T10:20:46.990Z,12.97
2019-03-29T10:23:14.632Z,16.90
2019-03-29T10:25:42.214Z,16.10
2019-03-29T10:28:09.865Z,19.50
2019-03-29T10:30:41.773Z,11.20
2019-03-29T10:33:09.341Z,12.67
2019-03-29T10:35:50.959Z,14.17
2019-03-29T10:38:06.742Z,17.20
2019-03-29T10:40:34.385Z,13.70
2019-03-29T10:43:01.963Z,12.00
2019-03-29T10:45:29.520Z,11.37
2019-03-29T10:47:57.133Z,19.00
2019-03-29T10:50:47.598Z,14.80
2019-03-29T10:53:16.224Z,12.27
2019-03-29T10:55:43.952Z,11.50
2019-03-29T10:58:11.540Z,11.50
2019-03-29T11:00:40.342Z,13.07
2019-03-29T11:03:08.230Z,11.37
2019-03-29T11:05:35.956Z,12.67
2019-03-29T11:08:03.517Z,13.07
2019-03-29T11:10:32.429Z,10.20
2019-03-29T11:13:11.696Z,15.27
2019-03-29T11:15:29.732Z,13.07
2019-03-29T11:17:57.333Z,13.57
2019-03-29T11:20:24.858Z,13.93
2019-03-29T11:22:52.348Z,13.80
2019-03-29T11:25:19.973Z,12.43
2019-03-29T11:27:47.462Z,12.73
2019-03-29T11:30:14.975Z,11.00
2019-03-29T11:32:42.459Z,12.70
2019-03-29T11:35:10.074Z,10.87
2019-03-29T11:37:37.566Z,12.43
2019-03-29T11:40:05.503Z,11.63
2019-03-29T11:42:32.995Z,14.03
2019-03-29T11:45:01.852Z,12.60
2019-03-29T11:47:29.351Z,15.27
2019-03-29T11:49:56.871Z,15.23
2019-03-29T11:52:24.365Z,11.73
2019-03-29T11:54:51.918Z,12.63
2019-03-29T11:57:19.429Z,13.60
2019-03-29T11:59:46.943Z,11.50
2019-03-29T12:02:14.435Z,11.73
2019-03-29T12:04:41.953Z,13.77
2019-03-29T12:07:09.464Z,13.73
2019-03-29T12:09:37.003Z,11.57
2019-03-29T12:12:04.505Z,14.17
2019-03-29T12:14:32.029Z,10.67
2019-03-29T12:16:59.521Z,12.73
2019-03-29T12:19:27.045Z,13.90
2019-03-29T12:21:54.540Z,12.30
2019-03-29T12:24:22.146Z,13.57
2019-03-29T12:26:49.695Z,11.63
2019-03-29T12:29:17.211Z,15.30
2019-03-29T12:31:44.729Z,14.80
2019-03-29T12:34:12.375Z,10.30
2019-03-29T12:36:39.863Z,11.00
2019-03-29T12:39:07.476Z,12.33
2019-03-29T12:41:34.998Z,11.73
2019-03-29T12:44:02.485Z,10.67
2019-03-29T12:46:32.286Z,11.87
2019-03-29T12:48:59.385Z,13.20
2019-03-29T12:51:27.011Z,11.43
2019-03-29T12:53:54.494Z,11.47
2019-03-29T12:56:22.042Z,12.60
2019-03-29T12:58:49.525Z,15.30
2019-03-29T13:01:17.041Z,13.00
2019-03-29T13:03:44.532Z,13.30
2019-03-29T13:06:12.087Z,12.43
2019-03-29T13:08:39.586Z,11.90
2019-03-29T13:11:07.126Z,13.80
2019-03-29T13:13:34.615Z,14.40
2019-03-29T13:16:02.173Z,13.40
2019-03-29T13:18:29.689Z,10.23
2019-03-29T13:20:57.207Z,15.10
2019-03-29T13:23:24.699Z,12.17
2019-03-29T13:25:52.225Z,12.23
2019-03-29T13:28:19.784Z,11.10
2019-03-29T13:30:47.350Z,10.53
2019-03-29T13:33:14.852Z,11.37
2019-03-29T13:35:44.542Z,10.67
2019-03-29T13:38:11.852Z,12.43
2019-03-29T13:40:39.402Z,14.03
2019-03-29T13:43:06.925Z,13.20
2019-03-29T13:45:34.481Z,12.53
2019-03-29T13:48:02.005Z,11.63
2019-03-29T13:50:29.548Z,11.33
2019-03-29T13:52:57.051Z,12.50
2019-03-29T13:55:24.588Z,11.70
2019-03-29T13:58:13.167Z,13.00
2019-03-29T14:00:41.758Z,12.57
2019-03-29T14:03:09.259Z,13.97
2019-03-29T14:05:36.819Z,15.40
2019-03-29T14:08:04.337Z,13.00
2019-03-29T14:10:31.859Z,11.23
2019-03-29T14:12:59.347Z,13.77
2019-03-29T14:15:26.876Z,14.63
2019-03-29T14:17:54.395Z,10.47
2019-03-29T14:20:30.269Z,14.43
2019-03-29T14:22:57.785Z,17.93
2019-03-29T14:25:25.265Z,15.20
2019-03-29T14:27:52.789Z,15.97
2019-03-29T14:30:20.589Z,15.07
2019-03-29T14:32:48.168Z,14.47
2019-03-29T14:35:15.665Z,16.33
2019-03-29T14:37:43.187Z,14.80
2019-03-29T14:40:10.692Z,16.30
2019-03-29T14:42:38.208Z,12.73
2019-03-29T14:45:07.032Z,12.57
2019-03-29T14:47:42.693Z,13.50
2019-03-29T14:50:04.771Z,14.47
2019-03-29T14:52:32.292Z,13.33
2019-03-29T14:54:59.809Z,15.93
2019-03-29T14:57:27.390Z,15.60
2019-03-29T14:59:54.938Z,18.10
2019-03-29T15:02:22.537Z,16.30
2019-03-29T15:04:50.065Z,16.33
2019-03-29T15:07:18.390Z,19.63
2019-03-29T15:09:46.367Z,17.30
2019-03-29T15:12:13.923Z,19.83
2019-03-29T15:14:41.575Z,16.60
2019-03-29T15:17:09.132Z,22.53
2019-03-29T15:19:36.620Z,15.83
2019-03-29T15:22:04.130Z,16.43
2019-03-29T15:24:31.615Z,15.47
2019-03-29T15:26:59.184Z,12.83
2019-03-29T15:29:26.741Z,15.60
2019-03-29T15:31:54.262Z,14.87
2019-03-29T15:34:21.770Z,16.03
2019-03-29T15:36:49.322Z,14.67
2019-03-29T15:39:16.817Z,13.27
2019-03-29T15:41:44.338Z,14.27
2019-03-29T15:44:11.832Z,14.77
2019-03-29T15:46:39.447Z,17.00
2019-03-29T15:49:06.934Z,17.73
2019-03-29T15:51:34.440Z,13.80
2019-03-29T15:54:01.970Z,13.60
2019-03-29T15:56:29.499Z,13.13
2019-03-29T15:58:57.054Z,16.03
2019-03-29T16:01:24.556Z,19.10
2019-03-29T16:03:52.084Z,13.63
2019-03-29T16:06:19.577Z,13.57
2019-03-29T16:08:47.086Z,14.43
2019-03-29T16:11:17.046Z,14.30
2019-03-29T16:13:44.051Z,12.83
2019-03-29T16:16:11.550Z,15.20
2019-03-29T16:18:39.099Z,15.53
2019-03-29T16:21:06.768Z,14.07
2019-03-29T16:23:34.380Z,11.33
2019-03-29T16:26:01.883Z,11.30
2019-03-29T16:28:29.449Z,14.13
2019-03-29T16:30:57.024Z,11.70
2019-03-29T16:33:24.580Z,11.03
2019-03-29T16:35:52.114Z,13.73
2019-03-29T16:38:19.681Z,10.57
2019-03-29T16:40:47.169Z,9.17
2019-03-29T16:43:14.835Z,9.43
2019-03-29T16:45:48.130Z,12.30
2019-03-29T16:48:11.767Z,12.70
2019-03-29T16:50:39.454Z,11.90
2019-03-29T16:53:06.971Z,10.70
2019-03-29T16:55:34.503Z,11.00
2019-03-29T16:58:02.034Z,11.10
2019-03-29T17:00:29.527Z,11.50
2019-03-29T17:02:57.082Z,13.23
2019-03-29T17:05:24.718Z,15.63
2019-03-29T17:07:52.239Z,15.43
2019-03-29T17:10:19.734Z,14.47
2019-03-29T17:12:47.227Z,12.23
2019-03-29T17:15:14.879Z,14.30
2019-03-29T17:17:42.363Z,13.97
2019-03-29T17:20:10.058Z,18.40
2019-03-29T17:22:37.554Z,19.07
2019-03-29T17:25:05.524Z,20.07
2019-03-29T17:27:33.045Z,17.00
2019-03-29T17:30:01.120Z,15.10
2019-03-29T17:32:28.649Z,17.17
2019-03-29T17:34:56.233Z,14.50
2019-03-29T17:37:23.736Z,17.40
2019-03-29T17:39:51.264Z,18.27
2019-03-29T17:42:18.756Z,28.33
2019-03-29T17:44:46.274Z,34.07
2019-03-29T17:47:13.776Z,17.80
2019-03-29T17:49:41.293Z,17.17
2019-03-29T17:52:08.792Z,18.17
2019-03-29T17:54:36.302Z,16.03
2019-03-29T17:57:03.808Z,24.00
2019-03-29T17:59:31.319Z,18.60
2019-03-29T18:02:09.283Z,23.87
2019-03-29T18:04:28.231Z,20.10
2019-03-29T18:06:55.736Z,16.83
2019-03-29T18:09:23.263Z,15.33
2019-03-29T18:11:50.762Z,16.33
2019-03-29T18:14:18.318Z,20.50
2019-03-29T18:16:45.890Z,17.47
2019-03-29T18:19:13.415Z,17.07
2019-03-29T18:21:40.920Z,17.63
2019-03-29T18:24:08.512Z,19.70
2019-03-29T18:26:36.010Z,17.57
2019-03-29T18:29:04.910Z,16.60
2019-03-29T18:31:32.434Z,17.13
2019-03-29T18:34:03.726Z,16.27
2019-03-29T18:36:31.833Z,21.10
2019-03-29T18:38:59.360Z,21.47
2019-03-29T18:41:26.872Z,16.17
2019-03-29T18:43:54.382Z,16.67
2019-03-29T18:46:21.960Z,17.50
2019-03-29T18:48:49.535Z,18.77
2019-03-29T18:51:17.052Z,25.43
2019-03-29T18:53:44.560Z,19.17
2019-03-29T18:56:12.140Z,21.37
2019-03-29T18:58:39.652Z,18.77
2019-03-29T19:01:07.731Z,17.50
2019-03-29T19:03:35.597Z,16.73
2019-03-29T19:06:06.311Z,22.33
2019-03-29T19:08:33.802Z,16.77
2019-03-29T19:11:03.660Z,16.70
2019-03-29T19:13:31.265Z,16.00
2019-03-29T19:15:58.868Z,21.13
2019-03-29T19:18:26.368Z,15.10
2019-03-29T19:20:53.890Z,19.80
2019-03-29T19:23:21.383Z,19.40
2019-03-29T19:25:48.906Z,18.43
2019-03-29T19:28:16.401Z,17.97
2019-03-29T19:30:44.867Z,16.30
2019-03-29T19:33:12.546Z,20.60
2019-03-29T19:35:40.068Z,19.27
2019-03-29T19:38:07.585Z,19.10
2019-03-29T19:40:35.153Z,20.70
2019-03-29T19:43:02.657Z,23.87
2019-03-29T19:45:30.201Z,22.83
2019-03-29T19:47:57.721Z,27.53
2019-03-29T19:50:25.240Z,23.70
2019-03-29T19:52:52.941Z,28.30
2019-03-29T19:55:20.448Z,24.80
2019-03-29T19:57:48.125Z,25.90
2019-03-29T20:00:15.769Z,25.10
2019-03-29T20:02:43.315Z,26.03
2019-03-29T20:05:26.563Z,23.97
2019-03-29T20:07:55.355Z,24.53
2019-03-29T20:10:22.941Z,24.10
2019-03-29T20:12:50.528Z,29.17
2019-03-29T20:15:18.132Z,32.67
2019-03-29T20:17:45.866Z,32.17
2019-03-29T20:20:17.856Z,27.80
2019-03-29T20:22:45.381Z,26.43
2019-03-29T20:25:12.918Z,24.60
2019-03-29T20:27:40.445Z,23.23
2019-03-29T20:30:08.322Z,29.73
2019-03-29T20:32:35.831Z,25.13
2019-03-29T20:35:03.752Z,28.10
2019-03-29T20:37:31.266Z,22.13
2019-03-29T20:39:58.812Z,26.23
2019-03-29T20:42:26.417Z,28.13
2019-03-29T20:44:53.970Z,22.87
2019-03-29T20:47:21.537Z,26.97
2019-03-29T20:49:49.441Z,22.93
2019-03-29T20:52:16.957Z,24.47
2019-03-29T20:54:44.686Z,25.40
2019-03-29T20:57:12.369Z,25.60
2019-03-29T20:59:39.989Z,26.33
2019-03-29T21:02:07.912Z,21.77
2019-03-29T21:04:35.422Z,24.00
2019-03-29T21:07:02.981Z,29.30
2019-03-29T21:09:31.378Z,20.33
2019-03-29T21:11:58.908Z,21.57
2019-03-29T21:14:26.440Z,21.87
2019-03-29T21:16:54.007Z,22.20
2019-03-29T21:19:21.622Z,26.47
2019-03-29T21:21:49.234Z,21.77
2019-03-29T21:24:16.929Z,23.27
2019-03-29T21:26:44.542Z,23.97
2019-03-29T21:29:12.141Z,26.90
2019-03-29T21:31:39.720Z,23.83
2019-03-29T21:34:07.245Z,20.73
2019-03-29T21:36:34.888Z,26.37
2019-03-29T21:39:05.913Z,28.40
2019-03-29T21:41:33.465Z,25.37
2019-03-29T21:44:00.962Z,28.50
2019-03-29T21:46:28.609Z,30.90
2019-03-29T21:48:56.296Z,28.30
2019-03-29T21:51:23.843Z,30.33
2019-03-29T21:53:51.396Z,28.67
2019-03-29T21:56:19.149Z,24.90
2019-03-29T21:58:46.700Z,28.40
2019-03-29T22:01:14.326Z,29.80
2019-03-29T22:03:41.874Z,31.50
2019-03-29T22:06:09.414Z,26.97
2019-03-29T22:08:37.002Z,24.27
2019-03-29T22:11:04.484Z,34.23
2019-03-29T22:13:32.029Z,31.40
2019-03-29T22:15:59.517Z,25.33
2019-03-29T22:18:37.387Z,26.70
2019-03-29T22:20:56.452Z,29.47
2019-03-29T22:23:24.363Z,26.93
2019-03-29T22:25:52.273Z,27.33
2019-03-29T22:28:19.778Z,28.33
2019-03-29T22:30:47.269Z,32.13
2019-03-29T22:33:14.792Z,31.10
2019-03-29T22:35:42.255Z,27.10
2019-03-29T22:38:09.777Z,28.60
2019-03-29T22:40:37.253Z,28.00
2019-03-29T22:43:07.417Z,36.10
2019-03-29T22:45:34.253Z,29.07
2019-03-29T22:48:01.809Z,26.70
2019-03-29T22:50:29.284Z,30.33
2019-03-29T22:52:56.787Z,39.33
2019-03-29T22:55:24.277Z,30.83
2019-03-29T22:57:51.809Z,29.13
2019-03-29T23:00:27.359Z,27.97
2019-03-29T23:02:54.867Z,26.10
2019-03-29T23:05:22.469Z,26.67
2019-03-29T23:07:49.988Z,30.70
2019-03-29T23:10:17.459Z,29.50
2019-03-29T23:12:44.975Z,24.93
2019-03-29T23:15:13.464Z,24.13
2019-03-29T23:17:40.986Z,23.30
2019-03-29T23:20:08.868Z,28.87
2019-03-29T23:22:36.413Z,28.83
2019-03-29T23:25:04.147Z,35.53
2019-03-29T23:27:31.690Z,22.90
2019-03-29T23:29:59.208Z,24.30
2019-03-29T23:32:26.751Z,21.87
2019-03-29T23:34:54.243Z,26.90
2019-03-29T23:37:21.779Z,22.93
2019-03-29T23:39:49.267Z,23.90
2019-03-29T23:42:16.790Z,26.13
2019-03-29T23:44:44.259Z,24.87
2019-03-29T23:47:11.738Z,27.13
2019-03-29T23:49:39.261Z,26.03
2019-03-29T23:52:06.737Z,27.97
2019-03-29T23:54:34.250Z,25.60
2019-03-29T23:57:01.784Z,26.10
2019-03-29T23:59:29.280Z,27.23
